McBride, Missouri
Current Conditions -  °F | °C
As of 3:35 PM on Friday 24 Oct 2014 (Local Time) from KSAR Reporting Station
Clear Clear  
Wind Chill: 21°   Ceiling: Unl
Heat Index: 21°   Visibility: 10mi
Dew Point: 11°   Wind: 3mph
Humidity: 51%   Direction: 260°W
Pressure: 30.06"   Gusts: NA
Location:  37.83°N, 89.84°W
Report Text: KSAR 242035Z AUTO 26003KT 10SM CLR 21/11 A3006 RMK AO2 T02140110
Loading
Personal Weather Stations






























Interactive Weather Map
Tropical Storm Tracking
New forecast layout! Learn more

10-Day Weather Forecast

Advertisements
Track Severe Weather on mobile